createdAt,value
2023-02-27T00:01:07.042Z,103016.06
2023-02-27T00:03:08.481Z,103018.56
2023-02-27T00:05:10.930Z,103018.47
2023-02-27T00:07:12.878Z,103015.78
2023-02-27T00:09:14.366Z,103021.69
2023-02-27T00:11:15.885Z,103022.28
2023-02-27T00:13:17.451Z,103017.81
2023-02-27T00:15:20.362Z,103021.22
2023-02-27T00:17:21.898Z,103020.22
2023-02-27T00:19:23.749Z,103018.44
2023-02-27T00:21:25.700Z,103009.69
2023-02-27T00:23:28.056Z,103013.97
2023-02-27T00:25:29.524Z,103011.31
2023-02-27T00:27:32.637Z,103010.41
2023-02-27T00:29:34.080Z,103014.69
2023-02-27T00:31:35.727Z,103015.50
2023-02-27T00:33:37.216Z,103003.28
2023-02-27T00:35:38.671Z,103016.22
2023-02-27T00:37:40.674Z,103011.84
2023-02-27T00:39:42.222Z,103014.34
2023-02-27T00:41:43.673Z,103009.88
2023-02-27T00:43:45.248Z,103010.69
2023-02-27T00:45:48.369Z,103013.00
2023-02-27T00:47:49.864Z,103010.31
2023-02-27T00:49:51.359Z,103015.41
2023-02-27T00:51:53.422Z,103013.69
2023-02-27T00:53:54.870Z,103013.69
2023-02-27T00:55:56.368Z,103011.91
2023-02-27T00:57:57.808Z,103002.28
2023-02-27T00:59:59.351Z,103010.03
2023-02-27T01:02:00.867Z,103012.63
2023-02-27T01:04:02.508Z,103012.53
2023-02-27T01:06:04.185Z,103013.25
2023-02-27T01:08:05.704Z,103011.47
2023-02-27T01:10:08.838Z,103013.97
2023-02-27T01:12:10.385Z,103012.94
2023-02-27T01:14:11.877Z,103007.78
2023-02-27T01:16:14.467Z,103018.81
2023-02-27T01:18:15.992Z,103013.47
2023-02-27T01:20:17.946Z,103007.31
2023-02-27T01:22:19.392Z,103003.75
2023-02-27T01:24:21.925Z,103004.44
2023-02-27T01:26:23.421Z,103007.03
2023-02-27T01:28:25.050Z,103003.56
2023-02-27T01:30:27.110Z,103007.03
2023-02-27T01:32:28.763Z,103002.66
2023-02-27T01:34:31.120Z,103000.88
2023-02-27T01:36:33.656Z,102996.50
2023-02-27T01:38:35.237Z,103000.78
2023-02-27T01:40:38.350Z,102999.00
2023-02-27T01:42:39.810Z,103002.28
2023-02-27T01:45:20.024Z,103002.38
2023-02-27T01:47:21.484Z,103003.00
2023-02-27T01:49:32.431Z,103001.13
2023-02-27T01:51:38.042Z,103005.31
2023-02-27T01:53:41.161Z,103004.31
2023-02-27T01:55:43.420Z,103006.81
2023-02-27T01:57:46.420Z,103002.34
2023-02-27T01:59:47.931Z,103004.84
2023-02-27T02:01:50.810Z,103010.72
2023-02-27T02:04:10.288Z,103008.84
2023-02-27T02:06:12.471Z,103006.16
2023-02-27T02:08:18.241Z,103011.25
2023-02-27T02:10:21.526Z,103012.81
2023-02-27T02:12:27.872Z,103011.91
2023-02-27T02:14:29.342Z,103018.69
2023-02-27T02:16:59.552Z,103017.78
2023-02-27T02:19:43.281Z,103013.41
2023-02-27T02:21:44.671Z,103023.66
2023-02-27T02:24:23.942Z,103020.28
2023-02-27T02:27:03.838Z,103021.06
2023-02-27T02:29:34.634Z,103014.13
2023-02-27T02:32:14.996Z,103018.50
2023-02-27T02:34:25.751Z,103022.75
2023-02-27T02:36:51.157Z,103018.41
2023-02-27T02:39:10.766Z,103022.66
2023-02-27T02:41:22.778Z,103020.88
2023-02-27T02:44:02.952Z,103019.19
2023-02-27T02:46:50.781Z,103019.91
2023-02-27T02:49:11.036Z,103023.28
2023-02-27T02:51:44.423Z,103018.81
2023-02-27T02:53:58.307Z,103016.13
2023-02-27T02:56:14.297Z,103019.50
2023-02-27T02:58:32.679Z,103024.50
2023-02-27T03:00:43.933Z,103021.91
2023-02-27T03:03:11.550Z,103023.50
2023-02-27T03:05:24.613Z,103018.25
2023-02-27T03:07:32.904Z,103026.00
2023-02-27T03:09:41.388Z,103018.16
2023-02-27T03:11:47.430Z,103023.31
2023-02-27T03:13:55.100Z,103025.00
2023-02-27T03:16:07.866Z,103025.00
2023-02-27T03:18:34.853Z,103027.47
2023-02-27T03:20:47.205Z,103024.00
2023-02-27T03:22:55.279Z,103017.84
2023-02-27T03:25:00.384Z,103014.38
2023-02-27T03:27:03.958Z,103018.75
2023-02-27T03:29:11.546Z,103027.28
2023-02-27T03:31:23.302Z,103024.63
2023-02-27T03:33:31.219Z,103017.66
2023-02-27T03:36:17.162Z,103016.78
2023-02-27T03:38:31.112Z,103024.44
2023-02-27T03:40:51.719Z,103016.69
2023-02-27T03:43:06.001Z,103023.53
2023-02-27T03:45:18.764Z,103029.50
2023-02-27T03:47:20.841Z,103021.66
2023-02-27T03:49:22.836Z,103019.88
2023-02-27T03:51:27.975Z,103022.44
2023-02-27T03:53:41.575Z,103027.59
2023-02-27T03:55:47.620Z,103031.09
2023-02-27T03:57:51.802Z,103029.31
2023-02-27T03:59:53.384Z,103031.00
2023-02-27T04:01:57.023Z,103035.25
2023-02-27T04:04:04.924Z,103041.22
2023-02-27T04:06:26.849Z,103033.34
2023-02-27T04:08:53.087Z,103043.56
2023-02-27T04:11:01.817Z,103046.94
2023-02-27T04:13:25.869Z,103043.28
2023-02-27T04:15:46.413Z,103050.94
2023-02-27T04:18:04.174Z,103051.81
2023-02-27T04:20:21.044Z,103056.88
2023-02-27T04:22:38.175Z,103060.25
2023-02-27T04:24:54.507Z,103061.06
2023-02-27T04:27:18.346Z,103065.53
2023-02-27T04:29:39.849Z,103066.31
2023-02-27T04:32:00.990Z,103068.81
2023-02-27T04:34:18.416Z,103073.06
2023-02-27T04:36:56.327Z,103068.81
2023-02-27T04:39:09.375Z,103077.34
2023-02-27T04:41:21.274Z,103072.09
2023-02-27T04:43:24.759Z,103073.78
2023-02-27T04:45:28.660Z,103072.88
2023-02-27T04:47:36.649Z,103078.84
2023-02-27T04:49:45.746Z,103076.94
2023-02-27T04:52:00.886Z,103076.06
2023-02-27T04:54:12.278Z,103076.75
2023-02-27T04:56:19.666Z,103082.69
2023-02-27T04:58:27.411Z,103080.13
2023-02-27T05:00:31.833Z,103084.38
2023-02-27T05:02:37.800Z,103084.28
2023-02-27T05:04:43.654Z,103086.88
2023-02-27T05:06:48.409Z,103086.88
2023-02-27T05:09:08.019Z,103077.44
2023-02-27T05:11:18.304Z,103085.97
2023-02-27T05:13:30.740Z,103091.16
2023-02-27T05:15:54.594Z,103083.28
2023-02-27T05:18:06.466Z,103090.94
2023-02-27T05:20:09.172Z,103089.94
2023-02-27T05:22:35.193Z,103093.31
2023-02-27T05:24:41.781Z,103094.13
2023-02-27T05:27:07.750Z,103095.91
2023-02-27T05:29:23.765Z,103095.69
2023-02-27T05:32:00.503Z,103100.88
2023-02-27T05:34:23.041Z,103101.75
2023-02-27T05:36:39.976Z,103098.28
2023-02-27T05:38:55.739Z,103099.97
2023-02-27T05:41:03.534Z,103099.06
2023-02-27T05:43:10.874Z,103100.75
2023-02-27T05:45:22.334Z,103105.91
2023-02-27T05:47:30.369Z,103102.44
2023-02-27T05:49:43.078Z,103105.03
2023-02-27T05:51:48.123Z,103102.44
2023-02-27T05:53:57.603Z,103108.50
2023-02-27T05:56:04.373Z,103111.09
2023-02-27T05:58:09.811Z,103106.72
2023-02-27T06:00:18.194Z,103107.63
2023-02-27T06:02:19.781Z,103111.97
2023-02-27T06:04:21.469Z,103113.66
2023-02-27T06:06:23.215Z,103112.78
2023-02-27T06:08:25.345Z,103120.63
2023-02-27T06:10:27.002Z,103117.03
2023-02-27T06:12:28.471Z,103121.41
2023-02-27T06:14:29.972Z,103117.13
2023-02-27T06:16:31.551Z,103123.19
2023-02-27T06:18:33.115Z,103127.56
2023-02-27T06:20:34.611Z,103124.97
2023-02-27T06:22:36.152Z,103125.09
2023-02-27T06:24:37.769Z,103124.28
2023-02-27T06:26:39.265Z,103130.34
2023-02-27T06:28:42.280Z,103125.97
2023-02-27T06:30:46.199Z,103133.63
2023-02-27T06:32:47.963Z,103141.25
2023-02-27T06:34:49.591Z,103144.63
2023-02-27T06:36:51.110Z,103146.41
2023-02-27T06:38:52.572Z,103146.41
2023-02-27T06:40:54.124Z,103143.84
2023-02-27T06:42:55.618Z,103141.38
2023-02-27T06:44:57.070Z,103151.78
2023-02-27T06:46:58.538Z,103149.41
2023-02-27T06:49:00.022Z,103146.13
2023-02-27T06:51:01.470Z,103149.72
2023-02-27T06:53:03.178Z,103151.69
2023-02-27T06:55:06.741Z,103161.44
2023-02-27T06:57:08.437Z,103151.31
2023-02-27T06:59:09.932Z,103154.09
2023-02-27T07:01:12.218Z,103163.84
2023-02-27T07:03:14.018Z,103155.41
2023-02-27T07:05:15.651Z,103154.84
2023-02-27T07:07:33.939Z,103168.84
2023-02-27T07:09:38.033Z,103169.94
2023-02-27T07:11:39.488Z,103170.22
2023-02-27T07:13:40.943Z,103173.13
2023-02-27T07:15:42.546Z,103173.31
2023-02-27T07:17:44.001Z,103179.66
2023-02-27T07:19:45.564Z,103176.59
2023-02-27T07:21:47.066Z,103171.81
2023-02-27T07:23:48.585Z,103173.00
2023-02-27T07:25:50.776Z,103165.69
2023-02-27T07:27:52.323Z,103162.78
2023-02-27T07:29:54.052Z,103168.34
2023-02-27T07:31:55.557Z,103171.31
2023-02-27T07:33:57.263Z,103173.47
2023-02-27T07:35:58.758Z,103170.38
2023-02-27T07:38:00.253Z,103175.97
2023-02-27T07:40:01.824Z,103180.72
2023-02-27T07:42:03.458Z,103179.22
2023-02-27T07:44:06.964Z,103177.00
2023-02-27T07:46:08.464Z,103182.56
2023-02-27T07:48:10.817Z,103179.47
2023-02-27T07:50:14.099Z,103176.44
2023-02-27T07:52:15.533Z,103184.50
2023-02-27T07:54:17.184Z,103176.31
2023-02-27T07:56:18.684Z,103176.69
2023-02-27T07:58:20.181Z,103178.06
2023-02-27T08:00:22.291Z,103178.69
2023-02-27T08:02:23.869Z,103178.16
2023-02-27T08:04:25.471Z,103172.44
2023-02-27T08:06:27.182Z,103172.75
2023-02-27T08:08:29.603Z,103166.78
2023-02-27T08:10:31.087Z,103165.97
2023-02-27T08:12:32.649Z,103169.44
2023-02-27T08:14:34.269Z,103165.16
2023-02-27T08:16:35.860Z,103169.09
2023-02-27T08:18:37.398Z,103171.31
2023-02-27T08:20:38.842Z,103170.88
2023-02-27T08:22:41.432Z,103169.63
2023-02-27T08:24:43.021Z,103173.38
2023-02-27T08:26:44.517Z,103171.75
2023-02-27T08:28:46.014Z,103170.47
2023-02-27T08:30:48.994Z,103173.59
2023-02-27T08:32:50.475Z,103172.16
2023-02-27T08:34:52.650Z,103170.00
2023-02-27T08:36:54.438Z,103171.41
2023-02-27T08:38:56.007Z,103169.41
2023-02-27T08:40:57.526Z,103171.34
2023-02-27T08:42:58.992Z,103172.16
2023-02-27T08:45:00.664Z,103164.94
2023-02-27T08:47:02.143Z,103169.78
2023-02-27T08:49:03.699Z,103180.72
2023-02-27T08:51:05.293Z,103179.09
2023-02-27T08:53:06.736Z,103174.97
2023-02-27T08:55:08.916Z,103179.91
2023-02-27T08:57:10.360Z,103178.47
2023-02-27T08:59:11.834Z,103178.88
2023-02-27T09:01:13.334Z,103172.44
2023-02-27T09:03:15.113Z,103176.53
2023-02-27T09:05:16.946Z,103185.44
2023-02-27T09:07:18.526Z,103179.84
2023-02-27T09:09:23.592Z,103188.25
2023-02-27T09:11:25.918Z,103191.31
2023-02-27T09:13:28.508Z,103192.13
2023-02-27T09:15:31.794Z,103197.63
2023-02-27T09:17:33.494Z,103195.91
2023-02-27T09:19:35.014Z,103196.28
2023-02-27T09:21:37.334Z,103201.06
2023-02-27T09:23:39.429Z,103202.84
2023-02-27T09:25:40.878Z,103200.69
2023-02-27T09:27:42.327Z,103196.50
2023-02-27T09:29:43.804Z,103196.81
2023-02-27T09:31:45.745Z,103197.72
2023-02-27T09:33:47.336Z,103200.78
2023-02-27T09:35:48.801Z,103200.88
2023-02-27T09:37:50.297Z,103204.38
2023-02-27T09:39:51.819Z,103200.66
2023-02-27T09:41:59.450Z,103199.75
2023-02-27T09:44:01.710Z,103203.91
2023-02-27T09:46:05.484Z,103202.72
2023-02-27T09:48:34.419Z,103197.56
2023-02-27T09:50:37.108Z,103209.09
2023-02-27T09:52:39.530Z,103198.81
2023-02-27T09:54:43.106Z,103205.47
2023-02-27T09:56:52.290Z,103206.28
2023-02-27T09:59:29.128Z,103204.88
2023-02-27T10:01:40.246Z,103213.06
2023-02-27T10:03:59.740Z,103209.00
2023-02-27T10:06:07.440Z,103215.13
2023-02-27T10:08:21.978Z,103212.66
2023-02-27T10:10:35.799Z,103215.31
2023-02-27T10:12:54.691Z,103217.31
2023-02-27T10:15:09.971Z,103216.47
2023-02-27T10:17:34.863Z,103220.66
2023-02-27T10:19:38.446Z,103223.50
2023-02-27T10:21:44.661Z,103215.19
2023-02-27T10:23:56.443Z,103224.66
2023-02-27T10:25:58.736Z,103223.41
2023-02-27T10:28:16.403Z,103220.88
2023-02-27T10:30:34.698Z,103216.66
2023-02-27T10:32:39.747Z,103221.00
2023-02-27T10:34:43.829Z,103229.44
2023-02-27T10:36:46.687Z,103229.50
2023-02-27T10:38:54.205Z,103229.16
2023-02-27T10:40:58.748Z,103222.00
2023-02-27T10:43:03.233Z,103221.38
2023-02-27T10:45:06.216Z,103219.84
2023-02-27T10:47:15.346Z,103211.44
2023-02-27T10:49:19.919Z,103212.19
2023-02-27T10:51:26.336Z,103216.34
2023-02-27T10:53:28.252Z,103217.03
2023-02-27T10:55:32.482Z,103215.81
2023-02-27T10:57:42.916Z,103213.25
2023-02-27T10:59:52.829Z,103217.19
2023-02-27T11:01:59.546Z,103217.47
2023-02-27T11:04:01.188Z,103214.88
2023-02-27T11:06:23.610Z,103212.56
2023-02-27T11:08:28.582Z,103216.63
2023-02-27T11:10:30.113Z,103215.44
2023-02-27T11:12:34.082Z,103216.06
2023-02-27T11:14:35.526Z,103222.94
2023-02-27T11:16:50.608Z,103225.78
2023-02-27T11:18:54.354Z,103220.59
2023-02-27T11:21:14.239Z,103224.50
2023-02-27T11:23:21.812Z,103223.53
2023-02-27T11:25:25.525Z,103218.44
2023-02-27T11:27:29.636Z,103218.81
2023-02-27T11:29:33.555Z,103213.59
2023-02-27T11:31:37.811Z,103216.44
2023-02-27T11:33:47.930Z,103223.34
2023-02-27T11:35:57.452Z,103226.66
2023-02-27T11:38:07.081Z,103222.47
2023-02-27T11:40:14.263Z,103216.44
2023-02-27T11:42:26.108Z,103209.84
2023-02-27T11:44:49.637Z,103206.03
2023-02-27T11:46:51.015Z,103207.81
2023-02-27T11:49:19.839Z,103211.75
2023-02-27T11:51:56.630Z,103212.97
2023-02-27T11:54:34.632Z,103211.91
2023-02-27T11:56:41.627Z,103213.16
2023-02-27T11:59:05.720Z,103210.13
2023-02-27T12:01:15.194Z,103213.69
2023-02-27T12:03:22.608Z,103204.31
2023-02-27T12:05:36.334Z,103200.09
2023-02-27T12:08:24.127Z,103190.56
2023-02-27T12:10:29.768Z,103187.19
2023-02-27T12:12:41.491Z,103190.19
2023-02-27T12:14:50.445Z,103187.81
2023-02-27T12:17:01.494Z,103179.16
2023-02-27T12:19:11.633Z,103179.19
2023-02-27T12:21:32.268Z,103181.88
2023-02-27T12:23:50.131Z,103179.22
2023-02-27T12:25:57.032Z,103176.63
2023-02-27T12:28:09.198Z,103174.88
2023-02-27T12:30:24.284Z,103181.06
2023-02-27T12:32:25.972Z,103180.16
2023-02-27T12:34:38.383Z,103182.81
2023-02-27T12:36:39.865Z,103179.28
2023-02-27T12:38:41.910Z,103172.22
2023-02-27T12:40:51.962Z,103179.22
2023-02-27T12:43:16.374Z,103172.06
2023-02-27T12:45:44.174Z,103171.88
2023-02-27T12:48:16.109Z,103165.75
2023-02-27T12:50:20.651Z,103164.13
2023-02-27T12:52:45.427Z,103164.25
2023-02-27T12:55:23.486Z,103166.06
2023-02-27T12:57:49.984Z,103153.72
2023-02-27T13:00:29.795Z,103150.16
2023-02-27T13:02:50.204Z,103151.03
2023-02-27T13:05:02.548Z,103154.56
2023-02-27T13:07:12.141Z,103158.09
2023-02-27T13:09:38.252Z,103150.94
2023-02-27T13:11:48.810Z,103162.28
2023-02-27T13:13:59.286Z,103153.34
2023-02-27T13:16:09.524Z,103154.22
2023-02-27T13:18:28.018Z,103156.13
2023-02-27T13:20:49.995Z,103149.19
2023-02-27T13:23:27.680Z,103155.38
2023-02-27T13:25:32.342Z,103162.41
2023-02-27T13:27:45.385Z,103151.78
2023-02-27T13:30:13.972Z,103152.47
2023-02-27T13:32:41.239Z,103152.19
2023-02-27T13:35:00.578Z,103146.53
2023-02-27T13:37:04.994Z,103154.41
2023-02-27T13:39:52.830Z,103141.91
2023-02-27T13:41:54.349Z,103137.50
2023-02-27T13:44:20.022Z,103136.56
2023-02-27T13:46:30.325Z,103143.34
2023-02-27T13:48:46.345Z,103147.41
2023-02-27T13:50:50.483Z,103147.00
2023-02-27T13:52:52.820Z,103143.38
2023-02-27T13:54:57.257Z,103149.69
2023-02-27T13:57:07.192Z,103152.06
2023-02-27T13:59:19.372Z,103156.25
2023-02-27T14:01:27.506Z,103158.91
2023-02-27T14:03:32.317Z,103161.53
2023-02-27T14:05:43.265Z,103166.91
2023-02-27T14:07:53.982Z,103165.09
2023-02-27T14:10:03.180Z,103164.19
2023-02-27T14:12:20.450Z,103159.03
2023-02-27T14:14:36.356Z,103163.59
2023-02-27T14:16:37.925Z,103155.56
2023-02-27T14:18:54.889Z,103164.78
2023-02-27T14:20:56.348Z,103172.38
2023-02-27T14:23:21.920Z,103171.34
2023-02-27T14:25:30.504Z,103171.09
2023-02-27T14:27:44.028Z,103168.19
2023-02-27T14:29:47.887Z,103166.28
2023-02-27T14:31:51.249Z,103171.59
2023-02-27T14:33:55.873Z,103168.38
2023-02-27T14:36:03.693Z,103174.63
2023-02-27T14:38:10.856Z,103175.72
2023-02-27T14:40:30.051Z,103166.13
2023-02-27T14:43:05.217Z,103173.03
2023-02-27T14:45:24.316Z,103172.06
2023-02-27T14:47:36.788Z,103169.31
2023-02-27T14:49:38.324Z,103164.69
2023-02-27T14:51:39.894Z,103171.56
2023-02-27T14:53:41.645Z,103175.72
2023-02-27T14:55:53.792Z,103172.84
2023-02-27T14:57:57.290Z,103164.06
2023-02-27T14:59:58.777Z,103171.13
2023-02-27T15:02:04.168Z,103171.31
2023-02-27T15:04:08.472Z,103169.63
2023-02-27T15:06:19.748Z,103165.22
2023-02-27T15:08:25.252Z,103159.91
2023-02-27T15:10:33.369Z,103162.59
2023-02-27T15:12:39.437Z,103151.34
2023-02-27T15:14:41.833Z,103149.84
2023-02-27T15:16:44.680Z,103151.75
2023-02-27T15:19:12.077Z,103151.09
2023-02-27T15:21:15.254Z,103157.31
2023-02-27T15:23:28.479Z,103161.69
2023-02-27T15:25:31.334Z,103173.63
2023-02-27T15:27:37.118Z,103160.22
2023-02-27T15:29:42.229Z,103167.94
2023-02-27T15:31:46.343Z,103158.22
2023-02-27T15:33:48.868Z,103163.31
2023-02-27T15:35:51.717Z,103163.19
2023-02-27T15:37:56.658Z,103158.69
2023-02-27T15:40:00.182Z,103167.41
2023-02-27T15:42:04.288Z,103158.75
2023-02-27T15:44:06.023Z,103168.50
2023-02-27T15:46:07.763Z,103164.94
2023-02-27T15:48:14.221Z,103177.13
2023-02-27T15:50:15.630Z,103175.34
2023-02-27T15:52:23.227Z,103170.81
2023-02-27T15:54:25.058Z,103166.28
2023-02-27T15:56:33.362Z,103172.97
2023-02-27T15:58:38.183Z,103168.16
2023-02-27T16:00:39.730Z,103182.81
2023-02-27T16:02:52.900Z,103178.16
2023-02-27T16:04:54.666Z,103186.69
2023-02-27T16:07:14.827Z,103194.28
2023-02-27T16:09:24.482Z,103183.50
2023-02-27T16:11:30.071Z,103191.94
2023-02-27T16:13:37.097Z,103190.75
2023-02-27T16:15:40.180Z,103185.28
2023-02-27T16:17:59.285Z,103185.94
2023-02-27T16:20:21.537Z,103183.00
2023-02-27T16:22:23.615Z,103189.78
2023-02-27T16:24:31.417Z,103192.25
2023-02-27T16:26:36.804Z,103187.63
2023-02-27T16:28:53.579Z,103185.69
2023-02-27T16:30:55.334Z,103194.38
2023-02-27T16:33:00.313Z,103190.63
2023-02-27T16:35:18.011Z,103186.94
2023-02-27T16:37:27.731Z,103192.06
2023-02-27T16:39:29.907Z,103190.06
2023-02-27T16:41:31.472Z,103193.50
2023-02-27T16:43:33.669Z,103191.59
2023-02-27T16:45:35.318Z,103195.91
2023-02-27T16:47:36.855Z,103194.00
2023-02-27T16:49:40.336Z,103194.78
2023-02-27T16:51:41.809Z,103192.06
2023-02-27T16:53:44.722Z,103197.22
2023-02-27T16:55:46.216Z,103194.47
2023-02-27T16:57:47.786Z,103197.06
2023-02-27T16:59:49.227Z,103197.00
2023-02-27T17:01:50.690Z,103203.94
2023-02-27T17:03:53.106Z,103200.38
2023-02-27T17:05:54.620Z,103202.06
2023-02-27T17:07:56.115Z,103208.16
2023-02-27T17:09:57.913Z,103213.31
2023-02-27T17:11:59.396Z,103201.03
2023-02-27T17:14:00.859Z,103215.00
2023-02-27T17:16:04.138Z,103211.38
2023-02-27T17:18:05.650Z,103219.19
2023-02-27T17:20:08.101Z,103215.59
2023-02-27T17:22:09.604Z,103213.81
2023-02-27T17:24:11.102Z,103218.06
2023-02-27T17:26:13.190Z,103230.31
2023-02-27T17:28:14.725Z,103223.25
2023-02-27T17:30:16.934Z,103218.88
2023-02-27T17:32:18.441Z,103217.84
2023-02-27T17:34:20.010Z,103221.25
2023-02-27T17:36:22.596Z,103221.19
2023-02-27T17:38:24.059Z,103223.81
2023-02-27T17:40:26.451Z,103221.06
2023-02-27T17:42:27.884Z,103216.63
2023-02-27T17:44:29.428Z,103220.97
2023-02-27T17:46:31.742Z,103218.31
2023-02-27T17:48:33.648Z,103218.25
2023-02-27T17:50:35.358Z,103211.19
2023-02-27T17:52:37.422Z,103211.09
2023-02-27T17:54:39.147Z,103210.16
2023-02-27T17:56:40.637Z,103210.94
2023-02-27T17:58:45.372Z,103201.16
2023-02-27T18:00:46.949Z,103212.44
2023-02-27T18:02:48.482Z,103205.41
2023-02-27T18:04:50.374Z,103206.09
2023-02-27T18:06:52.080Z,103208.56
2023-02-27T18:08:53.584Z,103205.81
2023-02-27T18:10:55.413Z,103209.97
2023-02-27T18:12:56.866Z,103214.09
2023-02-27T18:14:58.337Z,103212.13
2023-02-27T18:16:59.915Z,103214.56
2023-02-27T18:19:06.108Z,103223.09
2023-02-27T18:21:14.211Z,103219.38
2023-02-27T18:23:15.794Z,103215.66
2023-02-27T18:25:17.290Z,103211.97
2023-02-27T18:27:18.737Z,103206.56
2023-02-27T18:29:20.231Z,103216.88
2023-02-27T18:31:24.696Z,103218.44
2023-02-27T18:33:27.421Z,103219.94
2023-02-27T18:35:29.112Z,103210.94
2023-02-27T18:37:30.599Z,103207.72
2023-02-27T18:39:32.092Z,103212.72
2023-02-27T18:41:33.886Z,103218.78
2023-02-27T18:43:36.876Z,103223.06
2023-02-27T18:45:38.586Z,103215.94
2023-02-27T18:47:40.085Z,103226.16
2023-02-27T18:49:41.670Z,103231.16
2023-02-27T18:51:44.192Z,103225.75
2023-02-27T18:53:48.088Z,103234.25
2023-02-27T18:55:49.583Z,103230.53
2023-02-27T18:57:51.123Z,103215.41
2023-02-27T18:59:53.646Z,103223.88
2023-02-27T19:01:55.240Z,103227.19
2023-02-27T19:04:03.468Z,103228.81
2023-02-27T19:06:05.336Z,103229.44
2023-02-27T19:08:06.821Z,103222.31
2023-02-27T19:10:09.800Z,103221.25
2023-02-27T19:12:11.324Z,103220.16
2023-02-27T19:14:15.863Z,103222.63
2023-02-27T19:16:17.498Z,103229.38
2023-02-27T19:18:19.351Z,103223.97
2023-02-27T19:20:20.807Z,103222.88
2023-02-27T19:22:22.398Z,103227.91
2023-02-27T19:24:24.048Z,103226.91
2023-02-27T19:26:25.770Z,103237.28
2023-02-27T19:28:27.637Z,103232.75
2023-02-27T19:30:29.292Z,103232.63
2023-02-27T19:32:31.443Z,103230.84
2023-02-27T19:34:33.665Z,103229.81
2023-02-27T19:36:35.149Z,103233.25
2023-02-27T19:38:37.350Z,103241.97
2023-02-27T19:40:38.807Z,103246.38
2023-02-27T19:42:40.860Z,103250.69
2023-02-27T19:44:43.167Z,103241.97
2023-02-27T19:46:46.835Z,103240.13
2023-02-27T19:48:48.428Z,103241.03
2023-02-27T19:50:50.016Z,103244.53
2023-02-27T19:52:52.192Z,103251.72
2023-02-27T19:54:54.322Z,103249.16
2023-02-27T19:56:56.077Z,103250.94
2023-02-27T19:58:57.841Z,103248.41
2023-02-27T20:00:59.807Z,103253.75
2023-02-27T20:03:01.389Z,103253.75
2023-02-27T20:05:03.173Z,103246.88
2023-02-27T20:07:04.711Z,103245.16
2023-02-27T20:09:06.200Z,103251.34
2023-02-27T20:11:07.770Z,103244.47
2023-02-27T20:13:09.552Z,103251.53
2023-02-27T20:15:11.741Z,103249.88
2023-02-27T20:17:14.253Z,103251.72
2023-02-27T20:19:18.040Z,103253.56
2023-02-27T20:21:24.385Z,103255.47
2023-02-27T20:23:26.078Z,103253.75
2023-02-27T20:25:29.380Z,103258.25
2023-02-27T20:27:30.912Z,103251.41
2023-02-27T20:29:32.689Z,103250.66
2023-02-27T20:31:36.181Z,103259.44
2023-02-27T20:33:37.724Z,103258.69
2023-02-27T20:35:40.075Z,103257.03
2023-02-27T20:37:41.567Z,103255.38
2023-02-27T20:39:45.162Z,103249.31
2023-02-27T20:41:47.725Z,103258.09
2023-02-27T20:43:49.886Z,103255.56
2023-02-27T20:45:51.512Z,103256.44
2023-02-27T20:47:53.678Z,103259.09
2023-02-27T20:49:55.194Z,103257.38
2023-02-27T20:51:58.543Z,103264.31
2023-02-27T20:54:00.168Z,103260.00
2023-02-27T20:56:02.266Z,103259.09
2023-02-27T20:58:03.801Z,103259.09
2023-02-27T21:00:05.899Z,103262.56
2023-02-27T21:02:09.266Z,103265.22
2023-02-27T21:04:10.884Z,103265.22
2023-02-27T21:06:15.427Z,103264.31
2023-02-27T21:08:17.821Z,103264.31
2023-02-27T21:10:19.283Z,103266.94
2023-02-27T21:12:20.750Z,103270.50
2023-02-27T21:14:22.248Z,103270.56
2023-02-27T21:16:25.634Z,103264.50
2023-02-27T21:18:27.091Z,103261.00
2023-02-27T21:20:28.559Z,103266.25
2023-02-27T21:22:30.023Z,103264.50
2023-02-27T21:24:32.433Z,103262.72
2023-02-27T21:26:37.998Z,103262.78
2023-02-27T21:28:47.598Z,103261.91
2023-02-27T21:30:54.597Z,103261.91
2023-02-27T21:32:57.745Z,103267.13
2023-02-27T21:34:59.190Z,103267.91
2023-02-27T21:37:02.034Z,103272.28
2023-02-27T21:39:08.053Z,103268.78
2023-02-27T21:41:12.569Z,103269.63
2023-02-27T21:43:14.069Z,103273.00
2023-02-27T21:45:15.652Z,103276.56
2023-02-27T21:47:17.400Z,103273.94
2023-02-27T21:49:22.678Z,103273.94
2023-02-27T21:51:38.895Z,103270.44
2023-02-27T21:53:42.041Z,103268.72
2023-02-27T21:55:43.494Z,103253.00
2023-02-27T21:57:44.994Z,103262.56
2023-02-27T21:59:46.547Z,103253.00
2023-02-27T22:01:48.898Z,103253.81
2023-02-27T22:03:53.640Z,103257.34
2023-02-27T22:05:55.077Z,103258.22
2023-02-27T22:07:56.563Z,103259.09
2023-02-27T22:09:58.020Z,103256.50
2023-02-27T22:11:59.491Z,103263.44
2023-02-27T22:14:01.039Z,103262.63
2023-02-27T22:16:10.224Z,103263.44
2023-02-27T22:18:11.720Z,103266.13
2023-02-27T22:20:13.294Z,103271.34
2023-02-27T22:22:14.785Z,103260.88
2023-02-27T22:24:16.346Z,103259.00
2023-02-27T22:26:21.303Z,103257.22
2023-02-27T22:28:23.063Z,103266.69
2023-02-27T22:30:24.518Z,103265.81
2023-02-27T22:32:26.087Z,103259.69
2023-02-27T22:34:27.633Z,103266.56
2023-02-27T22:36:30.792Z,103272.81
2023-02-27T22:38:32.302Z,103270.25
2023-02-27T22:40:36.108Z,103273.75
2023-02-27T22:42:37.684Z,103270.31
2023-02-27T22:44:39.121Z,103268.53
2023-02-27T22:46:47.044Z,103283.44
2023-02-27T22:48:48.767Z,103274.66
2023-02-27T22:51:05.857Z,103270.31
2023-02-27T22:53:07.365Z,103276.31
2023-02-27T22:55:09.112Z,103275.47
2023-02-27T22:57:10.672Z,103269.44
2023-02-27T22:59:12.255Z,103269.44
2023-02-27T23:01:20.690Z,103266.00
2023-02-27T23:03:22.282Z,103268.59
2023-02-27T23:05:23.770Z,103279.09
2023-02-27T23:07:25.259Z,103268.66
2023-02-27T23:09:27.324Z,103264.97
2023-02-27T23:11:29.241Z,103263.91
2023-02-27T23:13:32.155Z,103263.84
2023-02-27T23:15:35.260Z,103267.41
2023-02-27T23:17:43.564Z,103263.19
2023-02-27T23:19:50.790Z,103265.09
2023-02-27T23:21:52.298Z,103265.22
2023-02-27T23:23:53.909Z,103257.44
2023-02-27T23:25:55.424Z,103257.44
2023-02-27T23:27:56.897Z,103248.78
2023-02-27T23:29:58.391Z,103256.63
2023-02-27T23:31:59.920Z,103248.78
2023-02-27T23:34:01.960Z,103260.97
2023-02-27T23:36:04.221Z,103253.88
2023-02-27T23:38:05.709Z,103254.72
2023-02-27T23:40:08.065Z,103259.94
2023-02-27T23:42:09.512Z,103259.94
2023-02-27T23:44:11.006Z,103261.78
2023-02-27T23:46:16.263Z,103260.00
2023-02-27T23:48:18.209Z,103256.38
2023-02-27T23:50:22.380Z,103251.09
2023-02-27T23:52:23.840Z,103253.66
2023-02-27T23:54:25.380Z,103263.19
2023-02-27T23:56:29.454Z,103257.97
2023-02-27T23:58:30.984Z,103264.09
